createdAt,value
2023-03-26T00:01:36.720Z,99924.66
2023-03-26T00:04:08.458Z,99931.75
2023-03-26T00:06:39.610Z,99925.47
2023-03-26T00:09:09.505Z,99925.69
2023-03-26T00:11:37.723Z,99917.22
2023-03-26T00:14:06.512Z,99935.28
2023-03-26T00:16:34.732Z,99925.13
2023-03-26T00:19:05.077Z,99934.03
2023-03-26T00:21:34.968Z,99936.63
2023-03-26T00:24:05.379Z,99931.16
2023-03-26T00:26:37.623Z,99931.09
2023-03-26T00:29:10.292Z,99930.59
2023-03-26T00:31:39.849Z,99922.94
2023-03-26T00:34:10.520Z,99932.88
2023-03-26T00:36:42.290Z,99932.84
2023-03-26T00:39:14.508Z,99928.00
2023-03-26T00:41:43.498Z,99929.63
2023-03-26T00:44:12.592Z,99928.66
2023-03-26T00:46:40.981Z,99930.59
2023-03-26T00:49:11.011Z,99933.16
2023-03-26T00:51:41.181Z,99919.50
2023-03-26T00:54:12.062Z,99926.53
2023-03-26T00:56:41.239Z,99921.38
2023-03-26T00:59:11.782Z,99927.56
2023-03-26T01:01:43.040Z,99928.34
2023-03-26T01:04:28.441Z,99919.63
2023-03-26T01:07:02.729Z,99921.88
2023-03-26T01:09:36.966Z,99908.38
2023-03-26T01:12:11.859Z,99905.63
2023-03-26T01:14:40.314Z,99902.09
2023-03-26T01:17:12.804Z,99908.00
2023-03-26T01:19:46.733Z,99900.69
2023-03-26T01:22:18.878Z,99900.25
2023-03-26T01:24:53.897Z,99896.72
2023-03-26T01:27:33.932Z,99893.66
2023-03-26T01:30:11.782Z,99892.94
2023-03-26T01:33:01.018Z,99891.22
2023-03-26T01:35:42.796Z,99886.47
2023-03-26T01:38:24.414Z,99888.00
2023-03-26T01:41:00.818Z,99891.22
2023-03-26T01:43:34.399Z,99884.91
2023-03-26T01:46:07.484Z,99883.00
2023-03-26T01:48:38.191Z,99878.88
2023-03-26T01:51:09.141Z,99870.22
2023-03-26T01:53:42.747Z,99863.69
2023-03-26T01:56:19.840Z,99862.03
2023-03-26T01:59:00.792Z,99852.53
2023-03-26T02:01:37.429Z,99849.97
2023-03-26T02:04:17.491Z,99843.56
2023-03-26T02:06:48.654Z,99846.59
2023-03-26T02:09:22.367Z,99846.97
2023-03-26T02:11:52.425Z,99845.53
2023-03-26T02:14:20.562Z,99840.81
2023-03-26T02:16:48.680Z,99837.22
2023-03-26T02:19:21.854Z,99836.38
2023-03-26T02:21:52.295Z,99830.31
2023-03-26T02:24:21.697Z,99824.91
2023-03-26T02:26:58.137Z,99812.72
2023-03-26T02:29:28.516Z,99806.50
2023-03-26T02:31:56.857Z,99800.81
2023-03-26T02:34:25.116Z,99804.53
2023-03-26T02:36:58.167Z,99791.31
2023-03-26T02:39:27.722Z,99790.56
2023-03-26T02:42:00.865Z,99787.97
2023-03-26T02:44:30.684Z,99776.97
2023-03-26T02:46:59.318Z,99775.94
2023-03-26T02:49:46.264Z,99773.81
2023-03-26T02:52:21.130Z,99769.78
2023-03-26T02:54:51.091Z,99769.53
2023-03-26T02:57:23.010Z,99768.88
2023-03-26T03:00:05.676Z,99762.66
2023-03-26T03:02:44.459Z,99760.03
2023-03-26T03:05:34.018Z,99763.13
2023-03-26T03:08:21.816Z,99773.06
2023-03-26T03:11:10.739Z,99765.00
2023-03-26T03:13:45.015Z,99760.38
2023-03-26T03:16:16.987Z,99756.59
2023-03-26T03:18:46.539Z,99757.88
2023-03-26T03:21:14.894Z,99751.13
2023-03-26T03:23:44.463Z,99752.94
2023-03-26T03:26:21.599Z,99748.22
2023-03-26T03:28:56.114Z,99750.44
2023-03-26T03:31:25.561Z,99750.56
2023-03-26T03:33:56.808Z,99748.44
2023-03-26T03:36:27.745Z,99739.97
2023-03-26T03:39:06.575Z,99736.50
2023-03-26T03:41:36.345Z,99738.56
2023-03-26T03:44:10.068Z,99734.94
2023-03-26T03:46:37.941Z,99724.28
2023-03-26T03:49:06.015Z,99734.59
2023-03-26T03:51:37.388Z,99724.72
2023-03-26T03:54:12.872Z,99724.03
2023-03-26T03:57:03.302Z,99711.53
2023-03-26T03:59:47.996Z,99705.72
2023-03-26T04:02:26.649Z,99712.38
2023-03-26T04:04:59.339Z,99710.72
2023-03-26T04:07:32.132Z,99700.06
2023-03-26T04:10:07.426Z,99704.78
2023-03-26T04:12:53.975Z,99705.91
2023-03-26T04:15:36.393Z,99693.75
2023-03-26T04:18:13.162Z,99693.16
2023-03-26T04:20:47.615Z,99694.03
2023-03-26T04:23:22.873Z,99684.34
2023-03-26T04:25:59.068Z,99682.13
2023-03-26T04:28:46.333Z,99675.91
2023-03-26T04:31:39.243Z,99674.13
2023-03-26T04:34:14.371Z,99671.31
2023-03-26T04:36:55.978Z,99669.41
2023-03-26T04:39:29.922Z,99670.22
2023-03-26T04:42:19.931Z,99666.41
2023-03-26T04:45:11.221Z,99661.72
2023-03-26T04:47:46.469Z,99649.38
2023-03-26T04:50:16.030Z,99641.22
2023-03-26T04:52:45.490Z,99632.06
2023-03-26T04:55:37.845Z,99617.94
2023-03-26T04:58:17.195Z,99616.84
2023-03-26T05:00:53.699Z,99619.88
2023-03-26T05:03:31.897Z,99627.09
2023-03-26T05:06:05.035Z,99633.31
2023-03-26T05:08:34.179Z,99617.09
2023-03-26T05:11:02.115Z,99612.94
2023-03-26T05:13:36.091Z,99613.78
2023-03-26T05:16:14.739Z,99607.13
2023-03-26T05:18:51.517Z,99596.75
2023-03-26T05:21:20.267Z,99593.97
2023-03-26T05:23:48.131Z,99593.97
2023-03-26T05:26:21.002Z,99580.44
2023-03-26T05:28:52.636Z,99579.16
2023-03-26T05:31:27.005Z,99578.59
2023-03-26T05:36:29.100Z,99571.81
2023-03-26T05:39:18.851Z,99557.69
2023-03-26T05:42:07.845Z,99550.38
2023-03-26T05:45:11.980Z,99545.66
2023-03-26T05:47:43.049Z,99536.84
2023-03-26T05:50:13.226Z,99538.34
2023-03-26T05:52:44.581Z,99534.59
2023-03-26T05:55:28.874Z,99532.66
2023-03-26T05:58:16.233Z,99525.19
2023-03-26T06:01:25.728Z,99533.75
2023-03-26T06:04:20.251Z,99524.38
2023-03-26T06:07:10.079Z,99523.81
2023-03-26T06:09:39.995Z,99515.50
2023-03-26T06:12:12.277Z,99516.88
2023-03-26T06:14:42.723Z,99507.19
2023-03-26T06:17:19.209Z,99511.34
2023-03-26T06:22:42.949Z,99516.31
2023-03-26T06:25:19.318Z,99508.31
2023-03-26T06:28:10.778Z,99505.25
2023-03-26T06:31:00.702Z,99497.53
2023-03-26T06:33:53.258Z,99495.88
2023-03-26T06:36:21.613Z,99481.19
2023-03-26T06:38:55.391Z,99477.16
2023-03-26T06:41:23.492Z,99473.72
2023-03-26T06:44:09.838Z,99476.91
2023-03-26T06:47:01.102Z,99462.91
2023-03-26T06:49:49.458Z,99451.56
2023-03-26T06:52:35.988Z,99447.25
2023-03-26T06:55:31.528Z,99449.47
2023-03-26T06:58:12.593Z,99438.09
2023-03-26T07:01:00.751Z,99439.59
2023-03-26T07:03:47.262Z,99429.47
2023-03-26T07:06:34.114Z,99437.38
2023-03-26T07:09:22.026Z,99438.59
2023-03-26T07:12:10.914Z,99433.22
2023-03-26T07:15:00.722Z,99434.44
2023-03-26T07:17:55.381Z,99430.84
2023-03-26T07:20:30.179Z,99429.63
2023-03-26T07:22:58.851Z,99419.50
2023-03-26T07:25:50.060Z,99424.91
2023-03-26T07:28:26.688Z,99428.63
2023-03-26T07:31:27.423Z,99421.72
2023-03-26T07:34:47.203Z,99420.31
2023-03-26T07:37:38.349Z,99412.59
2023-03-26T07:40:29.928Z,99409.97
2023-03-26T07:43:27.125Z,99410.50
2023-03-26T07:46:20.891Z,99407.47
2023-03-26T07:48:58.577Z,99402.47
2023-03-26T07:51:37.172Z,99404.28
2023-03-26T07:54:12.259Z,99404.41
2023-03-26T07:57:20.971Z,99400.25
2023-03-26T08:00:08.245Z,99394.44
2023-03-26T08:03:15.096Z,99400.81
2023-03-26T08:06:16.831Z,99390.88
2023-03-26T08:09:04.200Z,99380.06
2023-03-26T08:12:02.356Z,99370.94
2023-03-26T08:14:46.559Z,99375.38
2023-03-26T08:17:25.757Z,99364.72
2023-03-26T08:20:07.461Z,99358.22
2023-03-26T08:22:41.150Z,99356.72
2023-03-26T08:25:20.847Z,99358.38
2023-03-26T08:28:01.330Z,99358.50
2023-03-26T08:30:30.951Z,99356.69
2023-03-26T08:33:11.225Z,99360.13
2023-03-26T08:35:42.729Z,99354.31
2023-03-26T08:38:10.891Z,99353.78
2023-03-26T08:41:02.982Z,99358.78
2023-03-26T08:44:04.078Z,99354.19
2023-03-26T08:47:14.371Z,99350.16
2023-03-26T08:50:18.338Z,99352.16
2023-03-26T08:53:18.827Z,99353.63
2023-03-26T08:55:54.768Z,99349.31
2023-03-26T08:59:15.532Z,99358.16
2023-03-26T09:02:13.561Z,99357.78
2023-03-26T09:05:16.350Z,99352.22
2023-03-26T09:08:26.278Z,99347.78
2023-03-26T09:11:26.876Z,99350.72
2023-03-26T09:14:22.475Z,99346.84
2023-03-26T09:17:26.698Z,99349.25
2023-03-26T09:20:20.690Z,99348.16
2023-03-26T09:23:08.124Z,99340.81
2023-03-26T09:26:08.740Z,99347.31
2023-03-26T09:29:33.417Z,99334.56
2023-03-26T09:32:32.062Z,99327.59
2023-03-26T09:35:16.974Z,99330.84
2023-03-26T09:37:59.996Z,99334.13
2023-03-26T09:40:38.762Z,99324.84
2023-03-26T09:43:36.151Z,99320.84
2023-03-26T09:46:21.709Z,99326.31
2023-03-26T09:49:06.213Z,99310.22
2023-03-26T09:51:53.417Z,99296.31
2023-03-26T09:54:47.213Z,99300.28
2023-03-26T09:57:30.409Z,99293.28
2023-03-26T10:00:22.028Z,99293.75
2023-03-26T10:03:27.416Z,99279.72
2023-03-26T10:06:19.927Z,99278.47
2023-03-26T10:09:01.400Z,99280.13
2023-03-26T10:11:44.522Z,99281.63
2023-03-26T10:14:24.028Z,99288.84
2023-03-26T10:17:05.898Z,99287.75
2023-03-26T10:19:50.869Z,99286.72
2023-03-26T10:22:39.908Z,99276.41
2023-03-26T10:25:33.668Z,99282.34
2023-03-26T10:28:17.664Z,99271.91
2023-03-26T10:31:12.836Z,99270.56
2023-03-26T10:33:54.404Z,99278.91
2023-03-26T10:36:29.956Z,99265.28
2023-03-26T10:39:36.268Z,99267.63
2023-03-26T10:42:24.655Z,99259.28
2023-03-26T10:45:19.480Z,99254.31
2023-03-26T10:48:00.123Z,99249.88
2023-03-26T10:50:42.920Z,99240.84
2023-03-26T10:53:19.723Z,99240.19
2023-03-26T10:55:55.700Z,99246.47
2023-03-26T10:58:27.358Z,99245.13
2023-03-26T11:01:04.688Z,99230.16
2023-03-26T11:03:51.943Z,99232.63
2023-03-26T11:06:30.987Z,99229.69
2023-03-26T11:09:12.267Z,99222.34
2023-03-26T11:11:49.980Z,99216.16
2023-03-26T11:14:34.173Z,99208.44
2023-03-26T11:17:40.353Z,99207.78
2023-03-26T11:20:08.456Z,99209.97
2023-03-26T11:22:54.891Z,99191.63
2023-03-26T11:25:31.505Z,99189.50
2023-03-26T11:28:13.917Z,99189.19
2023-03-26T11:30:50.096Z,99173.47
2023-03-26T11:33:21.987Z,99170.34
2023-03-26T11:35:54.147Z,99166.03
2023-03-26T11:38:27.569Z,99173.31
2023-03-26T11:40:59.007Z,99176.13
2023-03-26T11:44:02.871Z,99178.41
2023-03-26T11:46:34.683Z,99188.13
2023-03-26T11:49:12.038Z,99173.53
2023-03-26T11:51:43.030Z,99169.53
2023-03-26T11:54:13.245Z,99171.94
2023-03-26T11:57:05.461Z,99175.41
2023-03-26T11:59:53.316Z,99173.06
2023-03-26T12:02:32.628Z,99174.28
2023-03-26T12:05:25.004Z,99163.97
2023-03-26T12:07:58.665Z,99162.66
2023-03-26T12:10:32.674Z,99164.22
2023-03-26T12:13:03.594Z,99147.56
2023-03-26T12:15:33.479Z,99135.88
2023-03-26T12:18:21.789Z,99129.75
2023-03-26T12:21:04.578Z,99127.81
2023-03-26T12:23:39.486Z,99118.84
2023-03-26T12:26:20.945Z,99124.28
2023-03-26T12:28:51.466Z,99133.06
2023-03-26T12:31:23.297Z,99149.66
2023-03-26T12:34:08.363Z,99146.38
2023-03-26T12:36:39.488Z,99158.44
2023-03-26T12:40:08.826Z,99162.38
2023-03-26T12:44:54.391Z,99158.88
2023-03-26T12:45:17.342Z,99157.03
2023-03-26T12:48:02.334Z,99162.75
2023-03-26T12:50:51.143Z,99153.47
2023-03-26T12:53:32.018Z,99145.28
2023-03-26T12:56:11.024Z,99147.16
2023-03-26T12:59:06.045Z,99141.28
2023-03-26T13:01:44.980Z,99134.97
2023-03-26T13:04:37.531Z,99127.41
2023-03-26T13:07:17.085Z,99128.88
2023-03-26T13:10:03.699Z,99121.72
2023-03-26T13:12:41.265Z,99105.06
2023-03-26T13:15:25.617Z,99107.38
2023-03-26T13:18:08.868Z,99094.50
2023-03-26T13:20:58.139Z,99079.88
2023-03-26T13:23:40.449Z,99077.94
2023-03-26T13:26:39.088Z,99067.91
2023-03-26T13:29:15.840Z,99071.25
2023-03-26T13:31:54.913Z,99065.69
2023-03-26T13:34:36.540Z,99076.38
2023-03-26T13:37:14.316Z,99065.81
2023-03-26T13:39:56.645Z,99067.31
2023-03-26T13:42:41.162Z,99063.81
2023-03-26T13:45:25.295Z,99060.38
2023-03-26T13:47:56.850Z,99067.13
2023-03-26T13:50:29.020Z,99069.66
2023-03-26T13:53:03.249Z,99069.75
2023-03-26T13:55:37.454Z,99063.25
2023-03-26T13:58:13.272Z,99056.66
2023-03-26T14:00:54.445Z,99057.19
2023-03-26T14:03:30.972Z,99050.44
2023-03-26T14:06:04.965Z,99049.84
2023-03-26T14:08:41.963Z,99059.50
2023-03-26T14:11:13.912Z,99063.47
2023-03-26T14:13:49.780Z,99053.41
2023-03-26T14:16:22.556Z,99057.03
2023-03-26T14:18:58.316Z,99062.38
2023-03-26T14:21:43.176Z,99063.03
2023-03-26T14:24:44.691Z,99072.59
2023-03-26T14:27:25.755Z,99085.78
2023-03-26T14:30:05.694Z,99059.53
2023-03-26T14:32:52.752Z,99053.97
2023-03-26T14:35:33.971Z,99053.47
2023-03-26T14:38:24.836Z,99045.59
2023-03-26T14:40:58.848Z,99036.63
2023-03-26T14:43:50.482Z,99037.38
2023-03-26T14:46:36.234Z,99033.94
2023-03-26T14:49:47.268Z,99036.28
2023-03-26T14:52:22.624Z,99026.75
2023-03-26T14:54:55.582Z,99022.59
2023-03-26T14:58:07.773Z,99006.16
2023-03-26T15:01:18.356Z,99002.69
2023-03-26T15:04:44.003Z,98995.41
2023-03-26T15:07:36.884Z,98993.38
2023-03-26T15:10:26.148Z,98988.97
2023-03-26T15:13:26.342Z,98986.38
2023-03-26T15:16:29.750Z,98977.13
2023-03-26T15:19:26.898Z,98983.94
2023-03-26T15:22:31.982Z,98986.88
2023-03-26T15:25:37.781Z,98990.25
2023-03-26T15:28:41.490Z,98987.50
2023-03-26T15:31:37.264Z,98984.47
2023-03-26T15:34:43.348Z,98988.81
2023-03-26T15:37:44.521Z,98986.16
2023-03-26T15:40:36.257Z,98988.97
2023-03-26T15:43:12.407Z,98993.19
2023-03-26T15:45:43.306Z,98996.00
2023-03-26T15:48:35.546Z,98985.69
2023-03-26T15:51:21.906Z,99005.97
2023-03-26T15:53:58.854Z,99005.72
2023-03-26T15:56:53.289Z,99013.50
2023-03-26T15:59:43.251Z,99026.84
2023-03-26T16:02:26.518Z,99018.69
2023-03-26T16:05:08.298Z,99026.03
2023-03-26T16:07:52.762Z,99027.31
2023-03-26T16:10:30.272Z,99059.16
2023-03-26T16:13:37.996Z,99079.78
2023-03-26T16:16:23.965Z,99111.53
2023-03-26T16:18:59.536Z,99148.50
2023-03-26T16:21:45.739Z,99133.69
2023-03-26T16:24:24.573Z,99134.44
2023-03-26T16:27:08.175Z,99147.31
2023-03-26T16:30:27.360Z,99144.09
2023-03-26T16:32:58.699Z,99141.66
2023-03-26T16:36:04.397Z,99142.03
2023-03-26T16:38:55.750Z,99151.38
2023-03-26T16:41:27.351Z,99145.16
2023-03-26T16:44:15.651Z,99135.16
2023-03-26T16:46:57.869Z,99150.94
2023-03-26T16:49:38.689Z,99157.06
2023-03-26T16:52:25.684Z,99167.59
2023-03-26T16:55:07.637Z,99169.09
2023-03-26T16:57:42.473Z,99174.50
2023-03-26T17:00:43.838Z,99169.41
2023-03-26T17:03:37.567Z,99177.13
2023-03-26T17:06:34.175Z,99179.75
2023-03-26T17:09:09.460Z,99182.19
2023-03-26T17:11:53.160Z,99169.31
2023-03-26T17:14:32.107Z,99166.47
2023-03-26T17:17:13.236Z,99164.91
2023-03-26T17:19:50.318Z,99171.88
2023-03-26T17:22:31.142Z,99168.91
2023-03-26T17:25:04.872Z,99173.47
2023-03-26T17:28:15.866Z,99181.34
2023-03-26T17:31:03.272Z,99177.06
2023-03-26T17:33:38.961Z,99181.66
2023-03-26T17:36:41.343Z,99185.50
2023-03-26T17:39:46.814Z,99187.16
2023-03-26T17:42:25.908Z,99192.41
2023-03-26T17:44:57.092Z,99184.09
2023-03-26T17:47:44.977Z,99188.53
2023-03-26T17:50:21.169Z,99184.91
2023-03-26T17:52:58.342Z,99188.06
2023-03-26T17:55:31.385Z,99190.28
2023-03-26T17:58:01.149Z,99186.25
2023-03-26T18:00:34.480Z,99195.41
2023-03-26T18:03:08.995Z,99178.63
2023-03-26T18:05:49.538Z,99191.00
2023-03-26T18:08:37.124Z,99180.81
2023-03-26T18:11:27.943Z,99185.28
2023-03-26T18:14:13.613Z,99196.59
2023-03-26T18:16:50.502Z,99192.03
2023-03-26T18:19:21.981Z,99191.19
2023-03-26T18:21:51.931Z,99188.97
2023-03-26T18:24:37.543Z,99194.38
2023-03-26T18:27:12.228Z,99197.13
2023-03-26T18:29:45.864Z,99198.25
2023-03-26T18:32:23.963Z,99199.94
2023-03-26T18:34:57.342Z,99208.50
2023-03-26T18:37:29.534Z,99210.28
2023-03-26T18:40:07.444Z,99215.94
2023-03-26T18:42:35.615Z,99216.78
2023-03-26T18:45:10.783Z,99212.66
2023-03-26T18:47:45.209Z,99220.69
2023-03-26T18:50:18.901Z,99219.84
2023-03-26T18:52:47.321Z,99218.19
2023-03-26T18:55:17.068Z,99215.19
2023-03-26T18:57:46.241Z,99218.25
2023-03-26T19:00:22.045Z,99227.97
2023-03-26T19:03:00.808Z,99214.38
2023-03-26T19:05:29.500Z,99220.50
2023-03-26T19:08:00.318Z,99219.50
2023-03-26T19:10:28.580Z,99220.31
2023-03-26T19:12:57.759Z,99221.75
2023-03-26T19:15:28.212Z,99214.69
2023-03-26T19:18:06.860Z,99222.88
2023-03-26T19:20:42.433Z,99219.88
2023-03-26T19:23:16.563Z,99223.31
2023-03-26T19:25:48.135Z,99229.94
2023-03-26T19:28:21.038Z,99222.50
2023-03-26T19:30:54.883Z,99228.03
2023-03-26T19:33:36.384Z,99221.47
2023-03-26T19:36:19.001Z,99226.03
2023-03-26T19:38:52.524Z,99228.34
2023-03-26T19:41:24.923Z,99231.41
2023-03-26T19:43:56.091Z,99227.09
2023-03-26T19:46:27.855Z,99224.34
2023-03-26T19:48:59.067Z,99230.13
2023-03-26T19:51:33.496Z,99226.00
2023-03-26T19:54:04.611Z,99229.75
2023-03-26T19:56:33.761Z,99229.47
2023-03-26T19:59:05.225Z,99225.31
2023-03-26T20:01:34.637Z,99239.72
2023-03-26T20:04:06.633Z,99232.81
2023-03-26T20:06:43.336Z,99236.72
2023-03-26T20:09:14.187Z,99244.09
2023-03-26T20:11:42.725Z,99248.22
2023-03-26T20:14:15.502Z,99242.00
2023-03-26T20:16:46.440Z,99245.53
2023-03-26T20:19:19.172Z,99244.81
2023-03-26T20:21:50.000Z,99241.63
2023-03-26T20:24:21.833Z,99259.91
2023-03-26T20:26:49.802Z,99250.91
2023-03-26T20:29:18.195Z,99258.25
2023-03-26T20:31:49.326Z,99267.09
2023-03-26T20:34:23.517Z,99268.63
2023-03-26T20:36:55.272Z,99254.59
2023-03-26T20:39:24.305Z,99262.28
2023-03-26T20:41:54.027Z,99264.97
2023-03-26T20:44:22.654Z,99266.00
2023-03-26T20:46:52.543Z,99274.59
2023-03-26T20:49:22.867Z,99277.09
2023-03-26T20:51:51.774Z,99281.03
2023-03-26T20:54:23.105Z,99280.19
2023-03-26T20:56:52.522Z,99292.50
2023-03-26T20:59:22.492Z,99291.97
2023-03-26T21:01:51.362Z,99294.28
2023-03-26T21:04:22.384Z,99300.53
2023-03-26T21:06:51.787Z,99302.75
2023-03-26T21:09:24.259Z,99304.16
2023-03-26T21:12:02.876Z,99314.00
2023-03-26T21:14:34.698Z,99315.69
2023-03-26T21:17:03.322Z,99325.38
2023-03-26T21:19:36.237Z,99327.81
2023-03-26T21:22:19.073Z,99344.59
2023-03-26T21:25:04.391Z,99341.16
2023-03-26T21:27:44.751Z,99342.41
2023-03-26T21:30:16.823Z,99358.59
2023-03-26T21:32:47.910Z,99358.06
2023-03-26T21:35:18.784Z,99366.38
2023-03-26T21:37:48.551Z,99371.63
2023-03-26T21:40:18.286Z,99378.25
2023-03-26T21:42:47.920Z,99374.38
2023-03-26T21:45:21.975Z,99377.16
2023-03-26T21:47:51.757Z,99392.91
2023-03-26T21:50:25.029Z,99394.31
2023-03-26T21:52:53.798Z,99402.06
2023-03-26T21:55:23.604Z,99399.28
2023-03-26T21:58:13.604Z,99411.03
2023-03-26T22:00:54.863Z,99421.97
2023-03-26T22:03:29.359Z,99424.72
2023-03-26T22:06:07.049Z,99425.00
2023-03-26T22:08:40.762Z,99434.25
2023-03-26T22:11:12.539Z,99431.34
2023-03-26T22:13:41.211Z,99439.22
2023-03-26T22:16:14.032Z,99451.41
2023-03-26T22:18:43.605Z,99461.47
2023-03-26T22:21:14.515Z,99471.38
2023-03-26T22:23:52.712Z,99476.59
2023-03-26T22:26:23.422Z,99484.59
2023-03-26T22:28:51.924Z,99487.94
2023-03-26T22:31:20.016Z,99495.94
2023-03-26T22:33:49.172Z,99499.38
2023-03-26T22:36:22.752Z,99512.28
2023-03-26T22:38:53.922Z,99517.69
2023-03-26T22:41:25.780Z,99533.00
2023-03-26T22:43:55.323Z,99544.47
2023-03-26T22:46:24.170Z,99549.25
2023-03-26T22:48:53.053Z,99555.06
2023-03-26T22:51:25.454Z,99562.53
2023-03-26T22:53:53.448Z,99563.34
2023-03-26T22:56:22.022Z,99560.25
2023-03-26T22:58:50.040Z,99573.63
2023-03-26T23:01:21.329Z,99587.38
2023-03-26T23:03:49.818Z,99590.94
2023-03-26T23:06:18.227Z,99592.91
2023-03-26T23:08:47.946Z,99598.75
2023-03-26T23:11:18.464Z,99615.91
2023-03-26T23:13:47.445Z,99611.06
2023-03-26T23:16:16.772Z,99623.09
2023-03-26T23:18:45.146Z,99629.44
2023-03-26T23:21:15.459Z,99635.91
2023-03-26T23:23:43.473Z,99646.00
2023-03-26T23:26:12.704Z,99655.44
2023-03-26T23:28:41.353Z,99673.19
2023-03-26T23:31:14.132Z,99669.72
2023-03-26T23:33:45.957Z,99673.09
2023-03-26T23:36:17.777Z,99682.97
2023-03-26T23:38:48.983Z,99687.75
2023-03-26T23:41:22.537Z,99697.50
2023-03-26T23:43:55.562Z,99698.75
2023-03-26T23:46:25.821Z,99715.22
2023-03-26T23:48:59.822Z,99718.28
2023-03-26T23:51:30.280Z,99723.03
2023-03-26T23:53:58.848Z,99727.00
2023-03-26T23:56:29.670Z,99733.19
2023-03-26T23:58:58.179Z,99729.97
